sensor_id;sensor_type;location;lat;lon;timestamp;P1;durP1;ratioP1;P2;durP2;ratioP2
25163;SDS011;13440;50.860;13.662;2022-12-20T00:00:53;38.85;;;19.77;;
25163;SDS011;13440;50.860;13.662;2022-12-20T00:03:19;39.30;;;20.15;;
25163;SDS011;13440;50.860;13.662;2022-12-20T00:05:44;38.45;;;19.08;;
25163;SDS011;13440;50.860;13.662;2022-12-20T00:08:10;36.35;;;19.85;;
25163;SDS011;13440;50.860;13.662;2022-12-20T00:10:40;36.38;;;18.52;;
25163;SDS011;13440;50.860;13.662;2022-12-20T00:13:06;35.13;;;18.02;;
25163;SDS011;13440;50.860;13.662;2022-12-20T00:15:32;40.38;;;19.73;;
25163;SDS011;13440;50.860;13.662;2022-12-20T00:17:57;34.80;;;18.33;;
25163;SDS011;13440;50.860;13.662;2022-12-20T00:20:24;38.33;;;19.33;;
25163;SDS011;13440;50.860;13.662;2022-12-20T00:22:50;37.78;;;19.88;;
25163;SDS011;13440;50.860;13.662;2022-12-20T00:25:15;35.75;;;18.33;;
25163;SDS011;13440;50.860;13.662;2022-12-20T00:27:40;34.88;;;18.17;;
25163;SDS011;13440;50.860;13.662;2022-12-20T00:30:06;36.88;;;18.98;;
25163;SDS011;13440;50.860;13.662;2022-12-20T00:32:32;37.58;;;19.75;;
25163;SDS011;13440;50.860;13.662;2022-12-20T00:34:57;35.42;;;18.85;;
25163;SDS011;13440;50.860;13.662;2022-12-20T00:37:23;37.70;;;17.98;;
25163;SDS011;13440;50.860;13.662;2022-12-20T00:39:48;36.78;;;19.15;;
25163;SDS011;13440;50.860;13.662;2022-12-20T00:42:14;30.90;;;16.52;;
25163;SDS011;13440;50.860;13.662;2022-12-20T00:44:39;33.50;;;18.05;;
25163;SDS011;13440;50.860;13.662;2022-12-20T00:47:05;33.97;;;17.63;;
25163;SDS011;13440;50.860;13.662;2022-12-20T00:49:30;32.85;;;17.70;;
25163;SDS011;13440;50.860;13.662;2022-12-20T00:51:56;30.80;;;16.35;;
25163;SDS011;13440;50.860;13.662;2022-12-20T00:54:21;31.55;;;17.02;;
25163;SDS011;13440;50.860;13.662;2022-12-20T00:56:46;29.83;;;16.27;;
25163;SDS011;13440;50.860;13.662;2022-12-20T00:59:12;28.73;;;15.60;;
25163;SDS011;13440;50.860;13.662;2022-12-20T01:01:37;28.17;;;15.90;;
25163;SDS011;13440;50.860;13.662;2022-12-20T01:04:03;30.50;;;15.90;;
25163;SDS011;13440;50.860;13.662;2022-12-20T01:06:28;26.38;;;15.52;;
25163;SDS011;13440;50.860;13.662;2022-12-20T01:08:54;30.50;;;16.58;;
25163;SDS011;13440;50.860;13.662;2022-12-20T01:11:21;27.52;;;15.05;;
25163;SDS011;13440;50.860;13.662;2022-12-20T01:13:49;24.98;;;13.70;;
25163;SDS011;13440;50.860;13.662;2022-12-20T01:16:18;28.13;;;14.43;;
25163;SDS011;13440;50.860;13.662;2022-12-20T01:18:48;25.92;;;14.75;;
25163;SDS011;13440;50.860;13.662;2022-12-20T01:21:15;26.27;;;14.63;;
25163;SDS011;13440;50.860;13.662;2022-12-20T01:23:41;26.60;;;14.45;;
25163;SDS011;13440;50.860;13.662;2022-12-20T01:26:07;29.73;;;15.48;;
25163;SDS011;13440;50.860;13.662;2022-12-20T01:28:37;27.42;;;14.57;;
25163;SDS011;13440;50.860;13.662;2022-12-20T01:31:08;30.35;;;16.13;;
25163;SDS011;13440;50.860;13.662;2022-12-20T01:33:35;28.00;;;14.77;;
25163;SDS011;13440;50.860;13.662;2022-12-20T01:36:02;30.13;;;15.52;;
25163;SDS011;13440;50.860;13.662;2022-12-20T01:38:29;27.85;;;14.98;;
25163;SDS011;13440;50.860;13.662;2022-12-20T01:40:55;29.08;;;15.43;;
25163;SDS011;13440;50.860;13.662;2022-12-20T01:43:21;30.08;;;16.30;;
25163;SDS011;13440;50.860;13.662;2022-12-20T01:45:47;31.80;;;16.25;;
25163;SDS011;13440;50.860;13.662;2022-12-20T01:48:13;28.00;;;15.88;;
25163;SDS011;13440;50.860;13.662;2022-12-20T01:50:43;33.33;;;17.45;;
25163;SDS011;13440;50.860;13.662;2022-12-20T01:53:09;27.95;;;16.45;;
25163;SDS011;13440;50.860;13.662;2022-12-20T01:55:35;34.55;;;17.67;;
25163;SDS011;13440;50.860;13.662;2022-12-20T01:58:02;31.42;;;16.38;;
25163;SDS011;13440;50.860;13.662;2022-12-20T02:00:30;32.47;;;17.95;;
25163;SDS011;13440;50.860;13.662;2022-12-20T02:02:57;32.05;;;17.90;;
25163;SDS011;13440;50.860;13.662;2022-12-20T02:05:23;32.80;;;17.13;;
25163;SDS011;13440;50.860;13.662;2022-12-20T02:07:50;34.03;;;16.52;;
25163;SDS011;13440;50.860;13.662;2022-12-20T02:10:17;30.90;;;15.60;;
25163;SDS011;13440;50.860;13.662;2022-12-20T02:12:45;32.65;;;16.48;;
25163;SDS011;13440;50.860;13.662;2022-12-20T02:15:32;29.13;;;16.55;;
25163;SDS011;13440;50.860;13.662;2022-12-20T02:18:15;30.27;;;16.85;;
25163;SDS011;13440;50.860;13.662;2022-12-20T02:21:18;29.92;;;16.52;;
25163;SDS011;13440;50.860;13.662;2022-12-20T02:32:15;33.83;;;17.90;;
25163;SDS011;13440;50.860;13.662;2022-12-20T02:34:43;30.92;;;17.63;;
25163;SDS011;13440;50.860;13.662;2022-12-20T02:37:09;32.50;;;16.98;;
25163;SDS011;13440;50.860;13.662;2022-12-20T02:39:35;32.88;;;18.13;;
25163;SDS011;13440;50.860;13.662;2022-12-20T02:42:05;33.83;;;18.38;;
25163;SDS011;13440;50.860;13.662;2022-12-20T02:44:33;35.95;;;19.02;;
25163;SDS011;13440;50.860;13.662;2022-12-20T02:47:25;33.22;;;18.65;;
25163;SDS011;13440;50.860;13.662;2022-12-20T02:49:53;32.95;;;17.70;;
25163;SDS011;13440;50.860;13.662;2022-12-20T02:52:20;33.95;;;18.63;;
25163;SDS011;13440;50.860;13.662;2022-12-20T02:54:50;34.72;;;18.38;;
25163;SDS011;13440;50.860;13.662;2022-12-20T02:57:19;33.80;;;17.00;;
25163;SDS011;13440;50.860;13.662;2022-12-20T02:59:56;33.95;;;17.95;;
25163;SDS011;13440;50.860;13.662;2022-12-20T03:02:36;33.45;;;17.92;;
25163;SDS011;13440;50.860;13.662;2022-12-20T03:05:22;31.55;;;17.00;;
25163;SDS011;13440;50.860;13.662;2022-12-20T03:07:49;30.58;;;17.38;;
25163;SDS011;13440;50.860;13.662;2022-12-20T03:10:18;32.15;;;16.83;;
25163;SDS011;13440;50.860;13.662;2022-12-20T03:12:44;32.28;;;17.40;;
25163;SDS011;13440;50.860;13.662;2022-12-20T03:15:10;33.95;;;17.42;;
25163;SDS011;13440;50.860;13.662;2022-12-20T03:17:35;32.25;;;17.45;;
25163;SDS011;13440;50.860;13.662;2022-12-20T03:20:01;31.17;;;16.42;;
25163;SDS011;13440;50.860;13.662;2022-12-20T03:22:27;31.95;;;15.77;;
25163;SDS011;13440;50.860;13.662;2022-12-20T03:24:53;30.77;;;16.38;;
25163;SDS011;13440;50.860;13.662;2022-12-20T03:27:18;28.65;;;16.05;;
25163;SDS011;13440;50.860;13.662;2022-12-20T03:29:44;33.13;;;16.48;;
25163;SDS011;13440;50.860;13.662;2022-12-20T03:32:10;30.45;;;16.42;;
25163;SDS011;13440;50.860;13.662;2022-12-20T03:34:38;27.92;;;15.35;;
25163;SDS011;13440;50.860;13.662;2022-12-20T03:37:04;27.75;;;15.60;;
25163;SDS011;13440;50.860;13.662;2022-12-20T03:39:30;26.88;;;15.13;;
25163;SDS011;13440;50.860;13.662;2022-12-20T03:41:55;30.10;;;16.30;;
25163;SDS011;13440;50.860;13.662;2022-12-20T03:44:21;29.98;;;16.52;;
25163;SDS011;13440;50.860;13.662;2022-12-20T03:46:47;29.38;;;16.83;;
25163;SDS011;13440;50.860;13.662;2022-12-20T03:49:13;29.95;;;16.42;;
25163;SDS011;13440;50.860;13.662;2022-12-20T03:51:44;27.75;;;15.68;;
25163;SDS011;13440;50.860;13.662;2022-12-20T03:54:10;30.77;;;16.85;;
25163;SDS011;13440;50.860;13.662;2022-12-20T03:59:30;31.67;;;17.20;;
25163;SDS011;13440;50.860;13.662;2022-12-20T04:01:57;30.30;;;16.15;;
25163;SDS011;13440;50.860;13.662;2022-12-20T04:04:26;30.48;;;16.83;;
25163;SDS011;13440;50.860;13.662;2022-12-20T04:06:51;32.67;;;18.08;;
25163;SDS011;13440;50.860;13.662;2022-12-20T04:09:17;30.27;;;16.58;;
25163;SDS011;13440;50.860;13.662;2022-12-20T04:11:47;32.53;;;17.73;;
25163;SDS011;13440;50.860;13.662;2022-12-20T04:14:13;34.50;;;18.23;;
25163;SDS011;13440;50.860;13.662;2022-12-20T04:16:39;30.73;;;17.63;;
25163;SDS011;13440;50.860;13.662;2022-12-20T04:19:05;34.30;;;18.25;;
25163;SDS011;13440;50.860;13.662;2022-12-20T04:21:38;33.50;;;18.10;;
25163;SDS011;13440;50.860;13.662;2022-12-20T04:24:04;32.08;;;16.73;;
25163;SDS011;13440;50.860;13.662;2022-12-20T04:26:43;34.13;;;17.65;;
25163;SDS011;13440;50.860;13.662;2022-12-20T04:29:10;32.70;;;17.90;;
25163;SDS011;13440;50.860;13.662;2022-12-20T04:31:36;36.00;;;19.08;;
25163;SDS011;13440;50.860;13.662;2022-12-20T04:34:01;35.00;;;18.42;;
25163;SDS011;13440;50.860;13.662;2022-12-20T04:36:29;33.60;;;17.52;;
25163;SDS011;13440;50.860;13.662;2022-12-20T04:38:57;34.92;;;17.98;;
25163;SDS011;13440;50.860;13.662;2022-12-20T04:41:22;32.33;;;17.45;;
25163;SDS011;13440;50.860;13.662;2022-12-20T04:43:54;35.72;;;18.50;;
25163;SDS011;13440;50.860;13.662;2022-12-20T04:46:22;34.90;;;19.77;;
25163;SDS011;13440;50.860;13.662;2022-12-20T04:48:50;39.10;;;19.63;;
25163;SDS011;13440;50.860;13.662;2022-12-20T04:51:16;35.40;;;19.77;;
25163;SDS011;13440;50.860;13.662;2022-12-20T04:53:42;38.42;;;21.05;;
25163;SDS011;13440;50.860;13.662;2022-12-20T04:56:36;38.50;;;20.88;;
25163;SDS011;13440;50.860;13.662;2022-12-20T04:59:07;41.47;;;22.20;;
25163;SDS011;13440;50.860;13.662;2022-12-20T05:01:33;42.30;;;22.23;;
25163;SDS011;13440;50.860;13.662;2022-12-20T05:03:59;43.47;;;23.20;;
25163;SDS011;13440;50.860;13.662;2022-12-20T05:06:28;42.42;;;22.88;;
25163;SDS011;13440;50.860;13.662;2022-12-20T05:08:53;42.17;;;22.17;;
25163;SDS011;13440;50.860;13.662;2022-12-20T05:11:19;40.92;;;21.65;;
25163;SDS011;13440;50.860;13.662;2022-12-20T05:13:45;40.45;;;21.27;;
25163;SDS011;13440;50.860;13.662;2022-12-20T05:16:12;39.50;;;21.33;;
25163;SDS011;13440;50.860;13.662;2022-12-20T05:18:37;41.20;;;22.70;;
25163;SDS011;13440;50.860;13.662;2022-12-20T05:21:04;44.65;;;22.48;;
25163;SDS011;13440;50.860;13.662;2022-12-20T05:23:51;41.63;;;21.33;;
25163;SDS011;13440;50.860;13.662;2022-12-20T05:26:50;38.78;;;20.98;;
25163;SDS011;13440;50.860;13.662;2022-12-20T05:29:17;43.60;;;22.08;;
25163;SDS011;13440;50.860;13.662;2022-12-20T05:31:42;38.95;;;21.20;;
25163;SDS011;13440;50.860;13.662;2022-12-20T05:34:08;41.75;;;21.52;;
25163;SDS011;13440;50.860;13.662;2022-12-20T05:36:35;38.85;;;21.23;;
25163;SDS011;13440;50.860;13.662;2022-12-20T05:39:03;39.72;;;22.10;;
25163;SDS011;13440;50.860;13.662;2022-12-20T05:41:32;39.17;;;21.63;;
25163;SDS011;13440;50.860;13.662;2022-12-20T05:43:58;36.92;;;19.88;;
25163;SDS011;13440;50.860;13.662;2022-12-20T05:46:23;39.33;;;22.08;;
25163;SDS011;13440;50.860;13.662;2022-12-20T05:48:56;39.20;;;20.70;;
25163;SDS011;13440;50.860;13.662;2022-12-20T05:51:22;38.25;;;20.13;;
25163;SDS011;13440;50.860;13.662;2022-12-20T05:54:01;35.50;;;19.38;;
25163;SDS011;13440;50.860;13.662;2022-12-20T05:56:51;36.80;;;19.90;;
25163;SDS011;13440;50.860;13.662;2022-12-20T05:59:22;36.35;;;20.08;;
25163;SDS011;13440;50.860;13.662;2022-12-20T06:01:47;41.50;;;21.35;;
25163;SDS011;13440;50.860;13.662;2022-12-20T06:04:13;34.22;;;19.30;;
25163;SDS011;13440;50.860;13.662;2022-12-20T06:06:39;34.95;;;19.42;;
25163;SDS011;13440;50.860;13.662;2022-12-20T06:09:06;32.78;;;18.92;;
25163;SDS011;13440;50.860;13.662;2022-12-20T06:11:41;32.50;;;18.10;;
25163;SDS011;13440;50.860;13.662;2022-12-20T06:14:09;33.75;;;18.40;;
25163;SDS011;13440;50.860;13.662;2022-12-20T06:16:38;34.97;;;19.38;;
25163;SDS011;13440;50.860;13.662;2022-12-20T06:19:05;30.67;;;17.50;;
25163;SDS011;13440;50.860;13.662;2022-12-20T06:21:31;27.85;;;16.58;;
25163;SDS011;13440;50.860;13.662;2022-12-20T06:23:57;30.05;;;17.13;;
25163;SDS011;13440;50.860;13.662;2022-12-20T06:26:24;29.90;;;16.70;;
25163;SDS011;13440;50.860;13.662;2022-12-20T06:28:50;26.50;;;15.90;;
25163;SDS011;13440;50.860;13.662;2022-12-20T06:31:22;28.48;;;16.50;;
25163;SDS011;13440;50.860;13.662;2022-12-20T06:33:51;31.67;;;17.67;;
25163;SDS011;13440;50.860;13.662;2022-12-20T06:36:19;27.55;;;17.05;;
25163;SDS011;13440;50.860;13.662;2022-12-20T06:38:44;29.40;;;16.40;;
25163;SDS011;13440;50.860;13.662;2022-12-20T06:41:10;31.65;;;16.52;;
25163;SDS011;13440;50.860;13.662;2022-12-20T06:43:36;30.85;;;16.60;;
25163;SDS011;13440;50.860;13.662;2022-12-20T06:46:01;28.83;;;17.40;;
25163;SDS011;13440;50.860;13.662;2022-12-20T06:48:27;27.50;;;16.25;;
25163;SDS011;13440;50.860;13.662;2022-12-20T06:50:52;31.73;;;17.65;;
25163;SDS011;13440;50.860;13.662;2022-12-20T06:53:19;28.25;;;17.25;;
25163;SDS011;13440;50.860;13.662;2022-12-20T06:55:46;27.15;;;16.23;;
25163;SDS011;13440;50.860;13.662;2022-12-20T06:58:14;30.48;;;17.20;;
25163;SDS011;13440;50.860;13.662;2022-12-20T07:00:41;27.77;;;16.25;;
25163;SDS011;13440;50.860;13.662;2022-12-20T07:03:06;30.08;;;17.38;;
25163;SDS011;13440;50.860;13.662;2022-12-20T07:05:32;29.63;;;16.67;;
25163;SDS011;13440;50.860;13.662;2022-12-20T07:07:57;29.63;;;17.75;;
25163;SDS011;13440;50.860;13.662;2022-12-20T07:10:23;29.27;;;17.00;;
25163;SDS011;13440;50.860;13.662;2022-12-20T07:12:49;32.53;;;19.15;;
25163;SDS011;13440;50.860;13.662;2022-12-20T07:15:14;32.25;;;18.98;;
25163;SDS011;13440;50.860;13.662;2022-12-20T07:17:40;34.08;;;18.88;;
25163;SDS011;13440;50.860;13.662;2022-12-20T07:20:05;30.38;;;18.63;;
25163;SDS011;13440;50.860;13.662;2022-12-20T07:22:31;36.03;;;20.10;;
25163;SDS011;13440;50.860;13.662;2022-12-20T07:24:58;33.15;;;18.65;;
25163;SDS011;13440;50.860;13.662;2022-12-20T07:27:24;34.00;;;19.50;;
25163;SDS011;13440;50.860;13.662;2022-12-20T07:29:49;32.13;;;19.05;;
25163;SDS011;13440;50.860;13.662;2022-12-20T07:32:15;31.58;;;18.42;;
25163;SDS011;13440;50.860;13.662;2022-12-20T07:34:40;32.63;;;18.25;;
25163;SDS011;13440;50.860;13.662;2022-12-20T07:37:06;33.05;;;18.00;;
25163;SDS011;13440;50.860;13.662;2022-12-20T07:39:32;34.83;;;19.30;;
25163;SDS011;13440;50.860;13.662;2022-12-20T07:41:58;33.50;;;19.80;;
25163;SDS011;13440;50.860;13.662;2022-12-20T07:44:23;31.75;;;18.90;;
25163;SDS011;13440;50.860;13.662;2022-12-20T07:46:49;32.17;;;18.33;;
25163;SDS011;13440;50.860;13.662;2022-12-20T07:49:14;30.75;;;19.00;;
25163;SDS011;13440;50.860;13.662;2022-12-20T07:51:49;31.38;;;18.23;;
25163;SDS011;13440;50.860;13.662;2022-12-20T07:56:51;30.50;;;17.98;;
25163;SDS011;13440;50.860;13.662;2022-12-20T07:59:20;33.28;;;19.35;;
25163;SDS011;13440;50.860;13.662;2022-12-20T08:01:48;32.45;;;18.70;;
25163;SDS011;13440;50.860;13.662;2022-12-20T08:04:15;32.40;;;18.45;;
25163;SDS011;13440;50.860;13.662;2022-12-20T08:06:43;32.15;;;18.65;;
25163;SDS011;13440;50.860;13.662;2022-12-20T08:09:09;33.17;;;18.48;;
25163;SDS011;13440;50.860;13.662;2022-12-20T08:11:38;31.52;;;18.20;;
25163;SDS011;13440;50.860;13.662;2022-12-20T08:14:04;32.28;;;18.42;;
25163;SDS011;13440;50.860;13.662;2022-12-20T08:16:30;33.30;;;18.75;;
25163;SDS011;13440;50.860;13.662;2022-12-20T08:18:56;30.65;;;18.30;;
25163;SDS011;13440;50.860;13.662;2022-12-20T08:21:21;33.72;;;19.00;;
25163;SDS011;13440;50.860;13.662;2022-12-20T08:23:46;32.47;;;19.25;;
25163;SDS011;13440;50.860;13.662;2022-12-20T08:26:12;32.17;;;18.80;;
25163;SDS011;13440;50.860;13.662;2022-12-20T08:28:37;32.17;;;18.17;;
25163;SDS011;13440;50.860;13.662;2022-12-20T08:31:03;35.00;;;19.90;;
25163;SDS011;13440;50.860;13.662;2022-12-20T08:33:31;32.42;;;18.52;;
25163;SDS011;13440;50.860;13.662;2022-12-20T08:35:57;32.28;;;18.75;;
25163;SDS011;13440;50.860;13.662;2022-12-20T08:38:24;33.33;;;20.00;;
25163;SDS011;13440;50.860;13.662;2022-12-20T08:40:51;32.53;;;18.77;;
25163;SDS011;13440;50.860;13.662;2022-12-20T08:43:16;31.70;;;19.80;;
25163;SDS011;13440;50.860;13.662;2022-12-20T08:45:41;34.47;;;19.52;;
25163;SDS011;13440;50.860;13.662;2022-12-20T08:48:07;34.80;;;19.73;;
25163;SDS011;13440;50.860;13.662;2022-12-20T08:50:32;35.70;;;20.25;;
25163;SDS011;13440;50.860;13.662;2022-12-20T08:52:58;33.53;;;19.70;;
25163;SDS011;13440;50.860;13.662;2022-12-20T08:55:23;31.98;;;18.90;;
25163;SDS011;13440;50.860;13.662;2022-12-20T08:57:48;31.08;;;18.88;;
25163;SDS011;13440;50.860;13.662;2022-12-20T09:00:14;36.78;;;20.23;;
25163;SDS011;13440;50.860;13.662;2022-12-20T09:02:40;35.00;;;19.50;;
25163;SDS011;13440;50.860;13.662;2022-12-20T09:05:06;36.85;;;19.52;;
25163;SDS011;13440;50.860;13.662;2022-12-20T09:07:32;35.00;;;20.55;;
25163;SDS011;13440;50.860;13.662;2022-12-20T09:09:57;34.83;;;19.98;;
25163;SDS011;13440;50.860;13.662;2022-12-20T09:12:22;37.17;;;19.77;;
25163;SDS011;13440;50.860;13.662;2022-12-20T09:14:48;33.15;;;20.75;;
25163;SDS011;13440;50.860;13.662;2022-12-20T09:17:13;33.38;;;19.73;;
25163;SDS011;13440;50.860;13.662;2022-12-20T09:19:39;33.15;;;19.80;;
25163;SDS011;13440;50.860;13.662;2022-12-20T09:22:04;31.10;;;17.67;;
25163;SDS011;13440;50.860;13.662;2022-12-20T09:24:29;33.72;;;19.70;;
25163;SDS011;13440;50.860;13.662;2022-12-20T09:26:55;33.35;;;20.00;;
25163;SDS011;13440;50.860;13.662;2022-12-20T09:29:20;32.70;;;19.60;;
25163;SDS011;13440;50.860;13.662;2022-12-20T09:31:47;31.88;;;19.35;;
25163;SDS011;13440;50.860;13.662;2022-12-20T09:34:13;34.45;;;19.55;;
25163;SDS011;13440;50.860;13.662;2022-12-20T09:36:39;36.05;;;22.02;;
25163;SDS011;13440;50.860;13.662;2022-12-20T09:39:04;32.35;;;18.65;;
25163;SDS011;13440;50.860;13.662;2022-12-20T09:41:34;34.90;;;20.67;;
25163;SDS011;13440;50.860;13.662;2022-12-20T09:46:42;36.30;;;20.60;;
25163;SDS011;13440;50.860;13.662;2022-12-20T09:49:13;33.80;;;19.30;;
25163;SDS011;13440;50.860;13.662;2022-12-20T09:59:45;32.67;;;18.75;;
25163;SDS011;13440;50.860;13.662;2022-12-20T10:02:19;31.05;;;18.02;;
25163;SDS011;13440;50.860;13.662;2022-12-20T10:04:47;33.60;;;18.42;;
25163;SDS011;13440;50.860;13.662;2022-12-20T10:15:50;33.42;;;19.35;;
25163;SDS011;13440;50.860;13.662;2022-12-20T10:18:34;32.28;;;19.50;;
25163;SDS011;13440;50.860;13.662;2022-12-20T10:23:36;34.10;;;19.33;;
25163;SDS011;13440;50.860;13.662;2022-12-20T10:26:07;34.00;;;19.13;;
25163;SDS011;13440;50.860;13.662;2022-12-20T10:28:34;35.60;;;20.70;;
25163;SDS011;13440;50.860;13.662;2022-12-20T10:31:00;34.58;;;20.17;;
25163;SDS011;13440;50.860;13.662;2022-12-20T10:33:30;34.03;;;19.95;;
25163;SDS011;13440;50.860;13.662;2022-12-20T10:36:16;34.25;;;19.83;;
25163;SDS011;13440;50.860;13.662;2022-12-20T10:38:45;32.70;;;18.73;;
25163;SDS011;13440;50.860;13.662;2022-12-20T10:41:14;33.17;;;18.52;;
25163;SDS011;13440;50.860;13.662;2022-12-20T10:43:42;31.55;;;18.08;;
25163;SDS011;13440;50.860;13.662;2022-12-20T10:46:09;33.17;;;17.77;;
25163;SDS011;13440;50.860;13.662;2022-12-20T10:48:35;35.40;;;19.70;;
25163;SDS011;13440;50.860;13.662;2022-12-20T10:51:07;33.45;;;20.05;;
25163;SDS011;13440;50.860;13.662;2022-12-20T10:56:34;35.70;;;19.33;;
25163;SDS011;13440;50.860;13.662;2022-12-20T10:59:01;39.97;;;21.95;;
25163;SDS011;13440;50.860;13.662;2022-12-20T11:01:47;36.35;;;19.63;;
25163;SDS011;13440;50.860;13.662;2022-12-20T11:06:52;38.47;;;21.23;;
25163;SDS011;13440;50.860;13.662;2022-12-20T11:11:56;35.17;;;20.27;;
25163;SDS011;13440;50.860;13.662;2022-12-20T11:14:26;34.20;;;20.08;;
25163;SDS011;13440;50.860;13.662;2022-12-20T11:16:52;34.80;;;19.30;;
25163;SDS011;13440;50.860;13.662;2022-12-20T11:19:37;33.90;;;19.08;;
25163;SDS011;13440;50.860;13.662;2022-12-20T11:22:14;31.13;;;17.67;;
25163;SDS011;13440;50.860;13.662;2022-12-20T11:27:31;30.27;;;17.67;;
25163;SDS011;13440;50.860;13.662;2022-12-20T11:30:11;33.35;;;18.23;;
25163;SDS011;13440;50.860;13.662;2022-12-20T11:32:54;28.65;;;16.30;;
25163;SDS011;13440;50.860;13.662;2022-12-20T11:35:32;28.58;;;15.52;;
25163;SDS011;13440;50.860;13.662;2022-12-20T11:38:16;32.15;;;17.35;;
25163;SDS011;13440;50.860;13.662;2022-12-20T11:40:50;32.30;;;17.95;;
25163;SDS011;13440;50.860;13.662;2022-12-20T11:48:47;31.37;;;18.30;;
25163;SDS011;13440;50.860;13.662;2022-12-20T11:51:52;33.13;;;18.17;;
25163;SDS011;13440;50.860;13.662;2022-12-20T11:54:25;29.20;;;17.90;;
25163;SDS011;13440;50.860;13.662;2022-12-20T11:56:54;31.42;;;19.15;;
25163;SDS011;13440;50.860;13.662;2022-12-20T11:59:37;31.85;;;18.40;;
25163;SDS011;13440;50.860;13.662;2022-12-20T12:05:00;31.75;;;18.50;;
25163;SDS011;13440;50.860;13.662;2022-12-20T12:07:30;29.48;;;17.02;;
25163;SDS011;13440;50.860;13.662;2022-12-20T12:10:16;32.40;;;18.50;;
25163;SDS011;13440;50.860;13.662;2022-12-20T12:12:45;35.63;;;20.35;;
25163;SDS011;13440;50.860;13.662;2022-12-20T12:15:17;34.85;;;20.20;;
25163;SDS011;13440;50.860;13.662;2022-12-20T12:17:53;36.20;;;20.25;;
25163;SDS011;13440;50.860;13.662;2022-12-20T12:23:41;35.22;;;19.45;;
25163;SDS011;13440;50.860;13.662;2022-12-20T12:26:24;39.22;;;19.65;;
25163;SDS011;13440;50.860;13.662;2022-12-20T12:29:02;37.97;;;20.33;;
25163;SDS011;13440;50.860;13.662;2022-12-20T12:34:26;32.33;;;19.00;;
25163;SDS011;13440;50.860;13.662;2022-12-20T12:42:53;38.10;;;20.60;;
25163;SDS011;13440;50.860;13.662;2022-12-20T12:45:43;35.33;;;19.05;;
25163;SDS011;13440;50.860;13.662;2022-12-20T12:50:48;36.28;;;19.38;;
25163;SDS011;13440;50.860;13.662;2022-12-20T12:53:22;36.10;;;18.80;;
25163;SDS011;13440;50.860;13.662;2022-12-20T12:55:48;32.28;;;17.95;;
25163;SDS011;13440;50.860;13.662;2022-12-20T13:00:56;35.90;;;18.52;;
25163;SDS011;13440;50.860;13.662;2022-12-20T13:11:37;34.35;;;19.55;;
25163;SDS011;13440;50.860;13.662;2022-12-20T13:16:42;35.42;;;19.33;;
25163;SDS011;13440;50.860;13.662;2022-12-20T13:19:15;36.50;;;19.55;;
25163;SDS011;13440;50.860;13.662;2022-12-20T13:21:43;31.30;;;19.63;;
25163;SDS011;13440;50.860;13.662;2022-12-20T13:26:56;37.92;;;20.05;;
25163;SDS011;13440;50.860;13.662;2022-12-20T13:29:23;36.42;;;19.08;;
25163;SDS011;13440;50.860;13.662;2022-12-20T13:31:50;34.80;;;18.67;;
25163;SDS011;13440;50.860;13.662;2022-12-20T13:34:34;34.30;;;19.08;;
25163;SDS011;13440;50.860;13.662;2022-12-20T13:37:00;33.28;;;19.13;;
25163;SDS011;13440;50.860;13.662;2022-12-20T13:41:52;36.63;;;20.98;;
25163;SDS011;13440;50.860;13.662;2022-12-20T13:44:34;35.00;;;19.17;;
25163;SDS011;13440;50.860;13.662;2022-12-20T13:47:06;36.03;;;19.58;;
25163;SDS011;13440;50.860;13.662;2022-12-20T13:49:40;36.67;;;19.33;;
25163;SDS011;13440;50.860;13.662;2022-12-20T13:54:42;30.67;;;18.13;;
25163;SDS011;13440;50.860;13.662;2022-12-20T13:57:10;33.05;;;18.92;;
25163;SDS011;13440;50.860;13.662;2022-12-20T13:59:42;32.85;;;18.40;;
25163;SDS011;13440;50.860;13.662;2022-12-20T14:02:10;30.83;;;18.10;;
25163;SDS011;13440;50.860;13.662;2022-12-20T14:04:43;31.13;;;18.05;;
25163;SDS011;13440;50.860;13.662;2022-12-20T14:07:15;30.67;;;17.23;;
25163;SDS011;13440;50.860;13.662;2022-12-20T14:09:43;28.15;;;17.05;;
25163;SDS011;13440;50.860;13.662;2022-12-20T14:12:16;32.45;;;18.95;;
25163;SDS011;13440;50.860;13.662;2022-12-20T14:14:42;31.92;;;17.52;;
25163;SDS011;13440;50.860;13.662;2022-12-20T14:17:28;29.75;;;17.25;;
25163;SDS011;13440;50.860;13.662;2022-12-20T14:22:29;30.45;;;16.80;;
25163;SDS011;13440;50.860;13.662;2022-12-20T14:24:54;30.17;;;17.25;;
25163;SDS011;13440;50.860;13.662;2022-12-20T14:27:20;30.80;;;17.73;;
25163;SDS011;13440;50.860;13.662;2022-12-20T14:29:45;31.80;;;17.73;;
25163;SDS011;13440;50.860;13.662;2022-12-20T14:32:16;33.30;;;18.17;;
25163;SDS011;13440;50.860;13.662;2022-12-20T14:34:42;28.35;;;17.33;;
25163;SDS011;13440;50.860;13.662;2022-12-20T14:42:20;30.00;;;18.08;;
25163;SDS011;13440;50.860;13.662;2022-12-20T14:44:45;32.58;;;17.95;;
25163;SDS011;13440;50.860;13.662;2022-12-20T14:47:15;34.70;;;20.13;;
25163;SDS011;13440;50.860;13.662;2022-12-20T14:49:47;37.17;;;20.63;;
25163;SDS011;13440;50.860;13.662;2022-12-20T14:52:18;35.85;;;20.80;;
25163;SDS011;13440;50.860;13.662;2022-12-20T15:00:13;37.40;;;20.88;;
25163;SDS011;13440;50.860;13.662;2022-12-20T15:02:41;39.55;;;20.83;;
25163;SDS011;13440;50.860;13.662;2022-12-20T15:13:46;55.55;;;28.38;;
25163;SDS011;13440;50.860;13.662;2022-12-20T15:16:16;57.20;;;27.88;;
25163;SDS011;13440;50.860;13.662;2022-12-20T15:18:43;45.45;;;23.17;;
25163;SDS011;13440;50.860;13.662;2022-12-20T15:23:58;38.10;;;19.85;;
25163;SDS011;13440;50.860;13.662;2022-12-20T15:26:25;38.80;;;21.98;;
25163;SDS011;13440;50.860;13.662;2022-12-20T15:28:51;38.83;;;21.63;;
25163;SDS011;13440;50.860;13.662;2022-12-20T15:31:18;43.20;;;21.30;;
25163;SDS011;13440;50.860;13.662;2022-12-20T15:33:44;37.10;;;20.42;;
25163;SDS011;13440;50.860;13.662;2022-12-20T15:36:12;36.08;;;19.50;;
25163;SDS011;13440;50.860;13.662;2022-12-20T15:38:41;38.75;;;20.80;;
25163;SDS011;13440;50.860;13.662;2022-12-20T15:41:09;36.20;;;19.75;;
25163;SDS011;13440;50.860;13.662;2022-12-20T15:43:37;37.28;;;21.08;;
25163;SDS011;13440;50.860;13.662;2022-12-20T15:46:03;39.47;;;21.58;;
25163;SDS011;13440;50.860;13.662;2022-12-20T15:48:28;37.35;;;20.00;;
25163;SDS011;13440;50.860;13.662;2022-12-20T15:50:55;39.92;;;22.20;;
25163;SDS011;13440;50.860;13.662;2022-12-20T15:53:27;36.58;;;21.33;;
25163;SDS011;13440;50.860;13.662;2022-12-20T15:55:55;38.50;;;21.20;;
25163;SDS011;13440;50.860;13.662;2022-12-20T15:58:22;39.45;;;21.67;;
25163;SDS011;13440;50.860;13.662;2022-12-20T16:00:48;39.53;;;22.05;;
25163;SDS011;13440;50.860;13.662;2022-12-20T16:03:14;40.22;;;21.92;;
25163;SDS011;13440;50.860;13.662;2022-12-20T16:05:42;40.25;;;21.63;;
25163;SDS011;13440;50.860;13.662;2022-12-20T16:08:07;37.97;;;22.27;;
25163;SDS011;13440;50.860;13.662;2022-12-20T16:10:33;38.83;;;21.17;;
25163;SDS011;13440;50.860;13.662;2022-12-20T16:12:58;37.72;;;21.50;;